Terminal Aerodrome Forecast
Issued by NWS

Current Version | Previous Version | Text Only | Print | Product List | Glossary On
Versions: 1 2 3 4 5 6 7 8 9 10 11 12 13 14 15 16 17 18
000
FTUS44 KLZK 211134
TAFPBF
TAF
KPBF 211134Z 2112/2212 13005KT P6SM VCSH BKN040 BKN250
      WS020/19035KT
     FM211600 17009G16KT P6SM VCSH FEW035 BKN050 BKN250
     FM220000 16009G16KT P6SM VCSH BKN050 BKN250
     FM220800 19008G16KT P6SM VCTS BKN050CB OVC100
      TEMPO 2209/2212 VRB15G30KT 3SM TSRA OVC030CB=

USA.gov is the U.S. government's official web portal to all federal, state and local government web resources and services.